Time;durP1;ratioP1;P1;durP2;ratioP2;P2;SDS_P1;SDS_P2;PMS_P1;PMS_P2;Temp;Humidity;BMP_temperature;BMP_pressure;BME280_temperature;BME280_humidity;BME280_pressure;Samples;Min_cycle;Max_cycle;Signal;HPM_P1;HPM_P2
2022/07/25 00:02:41;;;;;;;13.63;11.70;;;17.80;99.90;;;;;;20803924;28;20398;-58
2022/07/25 00:12:44;;;;;;;12.93;10.73;;;17.70;99.90;;;;;;20803799;28;20564;-58
2022/07/25 00:22:47;;;;;;;12.50;10.63;;;17.60;99.90;;;;;;20802736;28;20068;-58
2022/07/25 00:32:49;;;;;;;12.20;10.40;;;17.50;99.90;;;;;;20800566;28;20558;-57
2022/07/25 00:42:52;;;;;;;14.13;12.15;;;17.60;99.90;;;;;;20801399;28;20025;-58
2022/07/25 00:52:54;;;;;;;13.80;11.32;;;17.50;99.90;;;;;;20800502;28;20403;-58
2022/07/25 01:02:57;;;;;;;11.43;10.10;;;17.80;99.90;;;;;;20799701;28;20567;-58
2022/07/25 01:12:59;;;;;;;12.77;11.40;;;17.70;99.90;;;;;;20782901;28;20099;-59
2022/07/25 01:23:02;;;;;;;11.20;10.00;;;17.40;99.90;;;;;;20794018;28;20068;-59
2022/07/25 01:33:05;;;;;;;12.95;10.15;;;17.30;99.90;;;;;;20797824;28;20037;-58
2022/07/25 01:43:08;;;;;;;12.35;10.52;;;17.20;99.90;;;;;;20797379;28;20030;-58
2022/07/25 01:53:10;;;;;;;12.70;10.68;;;17.30;99.90;;;;;;20793259;28;20042;-57
2022/07/25 02:03:30;;;;;;;12.20;11.00;;;17.20;99.90;;;;;;20796595;28;20072;-58
2022/07/25 02:13:34;;;;;;;13.48;11.45;;;17.20;99.90;;;;;;20796084;28;20123;-57
2022/07/25 02:23:36;;;;;;;12.50;11.20;;;17.30;99.90;;;;;;20795327;28;20045;-57
2022/07/25 02:33:39;;;;;;;16.33;11.77;;;17.40;99.90;;;;;;20808446;28;20056;-57
2022/07/25 02:43:41;;;;;;;12.05;10.70;;;17.30;99.90;;;;;;20810601;28;20041;-57
2022/07/25 02:53:44;;;;;;;14.32;10.77;;;17.20;99.90;;;;;;20810215;28;20060;-57
2022/07/25 03:03:46;;;;;;;13.27;10.45;;;17.30;99.90;;;;;;20809002;28;20121;-58
2022/07/25 03:13:48;;;;;;;13.80;11.00;;;17.30;99.90;;;;;;20808570;28;20049;-58
2022/07/25 03:23:52;;;;;;;13.20;11.30;;;17.40;99.90;;;;;;20791453;28;20095;-58
2022/07/25 03:33:54;;;;;;;14.43;10.52;;;17.40;99.90;;;;;;20807777;28;20045;-57
2022/07/25 03:43:56;;;;;;;12.27;10.15;;;17.40;99.90;;;;;;20805275;28;20111;-58
2022/07/25 03:54:01;;;;;;;14.15;11.23;;;17.40;99.90;;;;;;20805076;28;20037;-57
2022/07/25 04:04:04;;;;;;;13.75;11.10;;;17.40;99.90;;;;;;20804497;28;20037;-57
2022/07/25 04:14:06;;;;;;;14.55;10.45;;;17.40;99.90;;;;;;20803923;28;20507;-58
2022/07/25 04:24:09;;;;;;;11.98;10.05;;;17.40;99.90;;;;;;20803204;28;20050;-58
2022/07/25 04:34:11;;;;;;;12.43;10.00;;;17.30;99.90;;;;;;20802034;28;20167;-58
2022/07/25 04:44:14;;;;;;;10.00;8.95;;;17.40;99.90;;;;;;20801566;28;20041;-59
2022/07/25 04:54:16;;;;;;;10.13;8.63;;;17.60;99.90;;;;;;20796832;28;20092;-59
2022/07/25 05:04:18;;;;;;;13.48;9.32;;;17.70;99.90;;;;;;20799749;28;20041;-59
2022/07/25 05:14:20;;;;;;;9.43;8.35;;;17.80;99.90;;;;;;20799335;28;20045;-58
2022/07/25 05:24:23;;;;;;;10.68;8.35;;;17.90;99.90;;;;;;20794672;28;20103;-58
2022/07/25 05:34:25;;;;;;;9.57;8.57;;;18.00;99.90;;;;;;20798072;28;20398;-59
2022/07/25 05:44:28;;;;;;;8.93;7.97;;;18.20;99.90;;;;;;20794189;28;20034;-58
2022/07/25 05:54:30;;;;;;;10.30;7.40;;;18.50;99.90;;;;;;20795609;28;20320;-58
2022/07/25 06:04:33;;;;;;;13.05;7.28;;;18.90;99.90;;;;;;20804092;28;20099;-58
2022/07/25 06:14:35;;;;;;;11.02;7.45;;;19.20;99.90;;;;;;20812541;28;20510;-60
2022/07/25 06:24:38;;;;;;;7.95;7.05;;;19.70;99.90;;;;;;20809542;28;20037;-58
2022/07/25 06:34:40;;;;;;;7.00;6.25;;;21.10;98.40;;;;;;20808653;28;20479;-59
2022/07/25 06:44:43;;;;;;;11.15;6.18;;;25.30;90.50;;;;;;20810566;28;20029;-64
2022/07/25 06:54:45;;;;;;;6.22;5.63;;;28.10;80.90;;;;;;20809927;28;20092;-59
2022/07/25 07:04:48;;;;;;;10.40;6.88;;;30.40;74.20;;;;;;20792292;28;20482;-64
2022/07/25 07:14:50;;;;;;;8.00;7.20;;;31.80;69.10;;;;;;20806311;28;20068;-60
2022/07/25 07:24:53;;;;;;;9.73;8.27;;;32.60;66.00;;;;;;20807121;28;20103;-60
2022/07/25 07:34:55;;;;;;;9.88;7.55;;;32.90;64.60;;;;;;20806076;28;20099;-60
2022/07/25 07:44:57;;;;;;;10.18;8.30;;;32.70;63.60;;;;;;20805575;28;20037;-61
2022/07/25 08:05:25;;;;;;;9.40;8.50;;;32.20;65.10;;;;;;20802483;28;20063;-63
2022/07/25 08:15:28;;;;;;;8.82;7.93;;;32.30;64.60;;;;;;20803146;28;20103;-60
2022/07/25 08:25:31;;;;;;;10.63;8.60;;;32.50;64.50;;;;;;20801989;28;20038;-60
2022/07/25 08:35:34;;;;;;;10.07;7.82;;;32.50;62.80;;;;;;20793683;28;20029;-60
2022/07/25 08:45:45;;;;;;;9.10;7.87;;;32.50;64.70;;;;;;20800118;28;20041;-60
2022/07/25 08:55:47;;;;;;;10.48;8.45;;;32.40;65.30;;;;;;20799802;28;20041;-60
2022/07/25 09:05:51;;;;;;;10.52;9.20;;;32.50;65.00;;;;;;20799789;28;20033;-59
2022/07/25 09:15:59;;;;;;;10.00;9.10;;;32.50;65.10;;;;;;20798533;28;20045;-59
2022/07/25 09:26:10;;;;;;;10.45;8.43;;;32.50;65.00;;;;;;20797829;28;20045;-62
2022/07/25 09:36:13;;;;;;;10.18;9.15;;;32.30;65.50;;;;;;20796689;28;20041;-59
2022/07/25 09:46:16;;;;;;;10.52;8.52;;;31.90;65.00;;;;;;20796732;28;20399;-59
2022/07/25 09:56:18;;;;;;;10.50;8.75;;;32.10;66.60;;;;;;20792357;28;20107;-59
2022/07/25 10:06:23;;;;;;;9.43;8.32;;;33.00;65.10;;;;;;20795811;28;20454;-59
2022/07/25 10:16:26;;;;;;;11.57;8.18;;;33.20;65.20;;;;;;20795825;28;20095;-59
2022/07/25 10:26:30;;;;;;;10.38;7.68;;;33.20;65.30;;;;;;20808075;28;20041;-59
2022/07/25 10:36:50;;;;;;;12.88;7.85;;;33.10;64.00;;;;;;20795141;28;20042;-59
2022/07/25 10:47:13;;;;;;;8.48;7.35;;;33.50;63.90;;;;;;20806092;28;20037;-59
2022/07/25 10:57:15;;;;;;;9.95;8.07;;;33.70;63.60;;;;;;20809439;28;20029;-59
2022/07/25 11:07:18;;;;;;;10.90;8.95;;;33.50;64.70;;;;;;20809069;28;20482;-59
2022/07/25 11:17:22;;;;;;;8.63;7.82;;;34.10;62.50;;;;;;20807827;28;20045;-59
2022/07/25 11:27:30;;;;;;;12.02;8.75;;;34.10;64.10;;;;;;20807998;28;20099;-59
2022/07/25 11:37:36;;;;;;;11.90;9.20;;;34.10;62.90;;;;;;20806608;28;20026;-59
2022/07/25 11:47:38;;;;;;;9.63;8.65;;;34.10;63.20;;;;;;20805716;28;20419;-59
2022/07/25 11:57:43;;;;;;;15.00;8.88;;;33.70;64.00;;;;;;20805074;28;20088;-59
2022/07/25 12:07:47;;;;;;;8.87;7.97;;;33.70;63.00;;;;;;20804811;28;20541;-59
2022/07/25 12:17:51;;;;;;;11.93;8.20;;;33.60;63.20;;;;;;20803078;28;20053;-58
2022/07/25 12:27:55;;;;;;;9.83;8.60;;;34.10;62.40;;;;;;20786740;28;20454;-59
2022/07/25 12:37:57;;;;;;;11.52;8.73;;;34.10;62.10;;;;;;20801608;28;20096;-58
2022/07/25 12:48:00;;;;;;;12.02;9.43;;;34.20;63.40;;;;;;20800820;28;20037;-58
2022/07/25 12:58:03;;;;;;;11.55;9.82;;;34.10;63.60;;;;;;20800700;28;20045;-58
2022/07/25 13:08:06;;;;;;;16.20;10.70;;;34.30;63.30;;;;;;20799283;28;20461;-58
2022/07/25 13:18:08;;;;;;;13.45;10.52;;;34.50;62.70;;;;;;20797180;28;20091;-57
2022/07/25 13:28:12;;;;;;;11.02;9.80;;;34.60;63.70;;;;;;20801662;28;20045;-58
2022/07/25 13:38:14;;;;;;;14.88;11.50;;;34.50;64.00;;;;;;20797512;28;20045;-57
2022/07/25 13:48:16;;;;;;;12.77;11.57;;;34.90;63.10;;;;;;20792197;28;20038;-57
2022/07/25 13:58:19;;;;;;;14.98;11.82;;;35.00;62.90;;;;;;20785565;28;20399;-58
2022/07/25 14:08:21;;;;;;;13.88;12.00;;;35.20;62.50;;;;;;20796572;28;20034;-57
2022/07/25 14:18:24;;;;;;;15.25;11.73;;;35.00;62.30;;;;;;20795841;28;20045;-58
2022/07/25 14:28:30;;;;;;;13.25;11.68;;;34.80;63.30;;;;;;20806565;28;20552;-57
2022/07/25 14:38:32;;;;;;;13.00;10.57;;;34.40;63.00;;;;;;20813376;28;20552;-57
2022/07/25 14:48:36;;;;;;;13.70;10.90;;;34.40;63.60;;;;;;20810367;28;20041;-58
2022/07/25 14:58:38;;;;;;;12.02;10.82;;;34.40;63.90;;;;;;20807296;28;20099;-58
2022/07/25 15:08:41;;;;;;;12.95;10.55;;;34.20;64.70;;;;;;20806733;28;20494;-58
2022/07/25 15:18:44;;;;;;;13.63;9.95;;;33.90;65.00;;;;;;20727088;28;20053;-58
2022/07/25 15:28:48;;;;;;;14.18;9.80;;;32.40;66.30;;;;;;20727481;28;20042;-58
2022/07/25 15:38:50;;;;;;;14.25;10.10;;;32.10;68.20;;;;;;20721043;28;20179;-58
2022/07/25 15:48:53;;;;;;;14.25;10.32;;;32.70;67.10;;;;;;20724461;28;20042;-58
2022/07/25 15:58:55;;;;;;;11.73;9.75;;;33.00;66.90;;;;;;20721263;28;20034;-57
2022/07/25 16:08:58;;;;;;;13.52;10.10;;;32.60;67.20;;;;;;20724434;28;20064;-58
2022/07/25 16:19:02;;;;;;;12.77;9.38;;;31.90;68.60;;;;;;20798157;28;20284;-57
2022/07/25 16:29:05;;;;;;;14.70;10.35;;;30.10;71.80;;;;;;20803623;28;20079;-57
2022/07/25 16:39:07;;;;;;;15.40;10.20;;;28.80;75.40;;;;;;20801474;28;20042;-58
2022/07/25 16:49:14;;;;;;;14.65;9.68;;;28.00;77.60;;;;;;20801490;28;20041;-58
2022/07/25 16:59:16;;;;;;;13.20;10.57;;;27.30;79.10;;;;;;20800714;28;20038;-58
2022/07/25 17:09:19;;;;;;;10.77;9.25;;;26.30;81.50;;;;;;20799599;28;20034;-57
2022/07/25 17:19:21;;;;;;;14.30;11.82;;;25.60;83.70;;;;;;20719710;28;20392;-57
2022/07/25 17:29:25;;;;;;;17.85;12.40;;;25.00;86.20;;;;;;20716477;28;20103;-57
2022/07/25 17:39:28;;;;;;;14.15;11.43;;;24.50;88.30;;;;;;20717812;28;20491;-58
2022/07/25 17:49:31;;;;;;;15.40;10.60;;;24.10;90.10;;;;;;20720210;28;20103;-58
2022/07/25 17:59:33;;;;;;;15.02;11.52;;;23.90;90.90;;;;;;20726154;28;20041;-57
2022/07/25 18:09:36;;;;;;;15.98;11.20;;;23.60;91.40;;;;;;20759680;28;20041;-57
2022/07/25 18:19:38;;;;;;;15.70;12.32;;;23.40;92.10;;;;;;20741157;28;20050;-57
2022/07/25 18:29:42;;;;;;;14.55;11.05;;;23.00;92.90;;;;;;20740566;28;20042;-57
2022/07/25 18:39:45;;;;;;;18.55;14.15;;;22.40;94.20;;;;;;20744145;28;20037;-57
2022/07/25 18:49:48;;;;;;;16.58;13.93;;;21.90;95.80;;;;;;20740606;28;20450;-57
2022/07/25 18:59:50;;;;;;;24.23;14.15;;;21.90;96.70;;;;;;20742356;28;20034;-57
2022/07/25 19:09:52;;;;;;;19.80;16.73;;;21.80;97.50;;;;;;20737035;28;20399;-58
2022/07/25 19:19:55;;;;;;;20.45;14.85;;;21.60;98.20;;;;;;20726510;28;20100;-57
2022/07/25 19:29:57;;;;;;;17.17;14.23;;;21.70;98.60;;;;;;20725288;28;20034;-57
2022/07/25 19:40:05;;;;;;;17.38;14.32;;;21.60;99.10;;;;;;20725874;28;20112;-57
2022/07/25 19:50:08;;;;;;;16.25;14.55;;;21.70;99.30;;;;;;20725035;28;20038;-57
2022/07/25 20:00:11;;;;;;;21.52;16.30;;;21.80;99.20;;;;;;20723059;28;20041;-57
2022/07/25 20:10:16;;;;;;;18.17;15.07;;;22.10;98.40;;;;;;20728030;28;20108;-58
2022/07/25 20:20:19;;;;;;;14.60;13.10;;;22.10;98.50;;;;;;20785775;28;20171;-58
2022/07/25 20:30:21;;;;;;;18.98;16.67;;;22.10;98.30;;;;;;20808521;28;20045;-58
2022/07/25 20:40:24;;;;;;;18.20;14.38;;;22.00;98.90;;;;;;20798849;28;20041;-57
2022/07/25 20:50:27;;;;;;;23.25;13.02;;;22.40;98.20;;;;;;20806474;28;20066;-58
2022/07/25 21:00:30;;;;;;;20.90;16.02;;;22.70;97.50;;;;;;20803414;28;20029;-58
2022/07/25 21:10:32;;;;;;;19.52;11.48;;;22.90;96.80;;;;;;20797770;28;20449;-58
2022/07/25 21:20:35;;;;;;;16.40;12.63;;;23.00;96.50;;;;;;20788395;28;20037;-58
2022/07/25 21:30:39;;;;;;;18.38;13.95;;;23.10;96.20;;;;;;20797928;28;20046;-58
2022/07/25 21:40:43;;;;;;;22.70;15.40;;;23.20;96.00;;;;;;20805904;28;20112;-57
2022/07/25 21:50:45;;;;;;;22.88;12.38;;;22.60;98.40;;;;;;20797904;28;20486;-57
2022/07/25 22:00:48;;;;;;;14.80;4.90;;;22.00;97.80;;;;;;20793901;28;20092;-58
2022/07/25 22:10:51;;;;;;;6.80;4.85;;;20.30;97.90;;;;;;20803764;28;20104;-59
2022/07/25 22:20:57;;;;;;;9.60;6.00;;;17.60;99.90;;;;;;20763986;28;20100;-59
2022/07/25 22:31:00;;;;;;;6.10;5.03;;;16.60;99.90;;;;;;20778678;28;20091;-59
2022/07/25 22:41:03;;;;;;;6.68;5.80;;;16.50;99.90;;;;;;20801891;28;20095;-59
2022/07/25 22:51:06;;;;;;;6.20;4.75;;;16.40;99.90;;;;;;20804968;28;20064;-58
2022/07/25 23:01:09;;;;;;;5.57;4.68;;;16.40;99.90;;;;;;20815271;28;20367;-56
2022/07/25 23:11:12;;;;;;;7.10;5.00;;;16.10;99.90;;;;;;20793880;28;20042;-56
2022/07/25 23:21:14;;;;;;;4.85;4.00;;;16.10;99.90;;;;;;20787733;28;20057;-56
2022/07/25 23:31:17;;;;;;;3.97;3.42;;;16.20;99.90;;;;;;20813318;28;20041;-56
2022/07/25 23:41:19;;;;;;;4.97;3.10;;;16.30;99.90;;;;;;20806286;28;20096;-56
2022/07/25 23:51:22;;;;;;;5.45;2.90;;;16.30;99.90;;;;;;20809581;28;20441;-56
